createdAt,value
2017-08-31T00:01:02.339Z,91.30
2017-08-31T00:03:28.382Z,91.50
2017-08-31T00:05:54.410Z,91.40
2017-08-31T00:08:20.452Z,91.50
2017-08-31T00:10:46.509Z,91.50
2017-08-31T00:13:12.535Z,91.50
2017-08-31T00:15:38.543Z,91.50
2017-08-31T00:18:04.739Z,91.70
2017-08-31T00:20:30.761Z,91.60
2017-08-31T00:22:56.806Z,91.80
2017-08-31T00:25:22.818Z,91.60
2017-08-31T00:27:49.683Z,91.70
2017-08-31T00:30:15.737Z,91.50
2017-08-31T00:32:41.790Z,91.40
2017-08-31T00:35:07.807Z,91.50
2017-08-31T00:37:33.874Z,91.60
2017-08-31T00:39:59.910Z,91.60
2017-08-31T00:42:25.934Z,91.70
2017-08-31T00:44:52.013Z,91.80
2017-08-31T00:47:18.091Z,91.60
2017-08-31T00:49:44.157Z,91.70
2017-08-31T00:52:10.520Z,91.80
2017-08-31T00:54:36.554Z,91.70
2017-08-31T00:57:02.621Z,91.70
2017-08-31T00:59:28.685Z,91.80
2017-08-31T01:01:54.729Z,91.80
2017-08-31T01:04:20.758Z,91.80
2017-08-31T01:06:46.803Z,91.90
2017-08-31T01:09:12.836Z,92.20
2017-08-31T01:11:39.700Z,92.20
2017-08-31T01:14:05.849Z,92.10
2017-08-31T01:16:31.926Z,92.10
2017-08-31T01:18:57.934Z,92.20
2017-08-31T01:21:23.975Z,92.20
2017-08-31T01:23:50.006Z,92.30
2017-08-31T01:26:16.036Z,92.30
2017-08-31T01:28:42.216Z,92.40
2017-08-31T01:31:08.233Z,92.30
2017-08-31T01:33:34.254Z,92.40
2017-08-31T01:36:00.302Z,92.40
2017-08-31T01:38:26.338Z,92.50
2017-08-31T01:40:52.376Z,92.40
2017-08-31T01:43:18.699Z,92.50
2017-08-31T01:45:44.741Z,92.50
2017-08-31T01:48:10.763Z,92.30
2017-08-31T01:50:36.860Z,92.30
2017-08-31T01:53:02.878Z,92.40
2017-08-31T01:55:28.918Z,92.40
2017-08-31T01:57:55.009Z,92.60
2017-08-31T02:00:21.038Z,92.50
2017-08-31T02:02:47.062Z,92.50
2017-08-31T02:05:13.714Z,92.50
2017-08-31T02:07:39.724Z,92.50
2017-08-31T02:10:05.759Z,92.50
2017-08-31T02:12:31.992Z,92.40
2017-08-31T02:14:58.006Z,92.30
2017-08-31T02:17:24.056Z,92.40
2017-08-31T02:19:50.103Z,92.40
2017-08-31T02:22:16.167Z,92.40
2017-08-31T02:24:42.198Z,92.50
2017-08-31T02:27:08.623Z,92.40
2017-08-31T02:29:34.640Z,92.20
2017-08-31T02:32:00.674Z,92.30
2017-08-31T02:34:26.792Z,92.40
2017-08-31T02:36:52.822Z,92.50
2017-08-31T02:39:18.853Z,92.60
2017-08-31T02:41:44.934Z,92.60
2017-08-31T02:44:10.982Z,92.70
2017-08-31T02:46:37.010Z,92.80
2017-08-31T02:49:03.055Z,92.90
2017-08-31T02:51:29.109Z,92.90
2017-08-31T02:53:55.152Z,92.80
2017-08-31T02:56:21.490Z,92.70
2017-08-31T02:58:47.544Z,92.70
2017-08-31T03:01:13.721Z,92.70
2017-08-31T03:03:39.784Z,92.60
2017-08-31T03:06:05.822Z,92.40
2017-08-31T03:08:31.870Z,92.10
2017-08-31T03:10:57.923Z,92.10
2017-08-31T03:13:23.962Z,92.20
2017-08-31T03:15:49.999Z,92.10
2017-08-31T03:18:16.064Z,92.20
2017-08-31T03:20:42.110Z,92.00
2017-08-31T03:23:08.146Z,92.00
2017-08-31T03:25:34.456Z,92.10
2017-08-31T03:28:00.930Z,91.90
2017-08-31T03:30:26.983Z,91.90
2017-08-31T03:32:53.254Z,91.60
2017-08-31T03:35:19.297Z,91.50
2017-08-31T03:37:45.350Z,91.80
2017-08-31T03:40:11.420Z,91.40
2017-08-31T03:42:37.441Z,91.40
2017-08-31T03:45:03.469Z,91.50
2017-08-31T03:47:29.685Z,91.70
2017-08-31T03:49:55.718Z,91.70
2017-08-31T03:52:21.738Z,91.80
2017-08-31T03:54:47.811Z,91.40
2017-08-31T03:57:13.835Z,91.40
2017-08-31T03:59:39.941Z,91.50
2017-08-31T04:02:05.956Z,91.30
2017-08-31T04:04:31.963Z,91.50
2017-08-31T04:06:58.002Z,91.20
2017-08-31T04:09:24.027Z,91.20
2017-08-31T04:11:50.049Z,91.20
2017-08-31T04:14:16.140Z,91.20
2017-08-31T04:16:42.168Z,91.00
2017-08-31T04:19:08.196Z,91.00
2017-08-31T04:21:34.239Z,90.70
2017-08-31T04:24:00.306Z,90.60
2017-08-31T04:26:26.318Z,90.70
2017-08-31T04:28:52.370Z,90.80
2017-08-31T04:31:18.395Z,90.90
2017-08-31T04:33:44.417Z,90.70
2017-08-31T04:36:10.818Z,90.60
2017-08-31T04:38:36.842Z,90.90
2017-08-31T04:41:02.862Z,90.90
2017-08-31T04:43:28.913Z,90.70
2017-08-31T04:45:54.972Z,90.60
2017-08-31T04:48:21.006Z,90.60
2017-08-31T04:50:47.349Z,90.50
2017-08-31T04:53:13.372Z,90.40
2017-08-31T04:55:39.419Z,90.70
2017-08-31T04:58:05.489Z,90.70
2017-08-31T05:00:31.521Z,90.40
2017-08-31T05:02:57.564Z,90.20
2017-08-31T05:05:23.616Z,90.00
2017-08-31T05:07:49.665Z,89.60
2017-08-31T05:10:15.710Z,89.90
2017-08-31T05:12:41.802Z,90.00
2017-08-31T05:15:07.829Z,90.00
2017-08-31T05:17:33.873Z,89.70
2017-08-31T05:19:59.942Z,89.60
2017-08-31T05:22:25.984Z,89.90
2017-08-31T05:24:52.007Z,89.10
2017-08-31T05:27:18.188Z,89.60
2017-08-31T05:29:44.222Z,89.40
2017-08-31T05:32:10.259Z,89.00
2017-08-31T05:34:36.673Z,89.10
2017-08-31T05:37:02.718Z,89.20
2017-08-31T05:39:28.782Z,88.50
2017-08-31T05:41:54.886Z,88.90
2017-08-31T05:44:20.936Z,89.50
2017-08-31T05:46:46.988Z,89.40
2017-08-31T05:49:13.061Z,89.20
2017-08-31T05:51:39.182Z,89.50
2017-08-31T05:54:05.218Z,88.00
2017-08-31T05:56:31.324Z,88.30
2017-08-31T05:58:57.385Z,88.00
2017-08-31T06:01:23.450Z,87.90
2017-08-31T06:03:49.525Z,87.20
2017-08-31T06:06:15.550Z,87.30
2017-08-31T06:08:41.614Z,87.40
2017-08-31T06:11:07.666Z,87.80
2017-08-31T06:13:33.703Z,87.50
2017-08-31T06:15:59.768Z,88.10
2017-08-31T06:18:25.864Z,87.90
2017-08-31T06:20:51.958Z,87.70
2017-08-31T06:23:18.011Z,87.60
2017-08-31T06:25:44.066Z,87.60
2017-08-31T06:28:10.106Z,88.10
2017-08-31T06:30:36.175Z,87.80
2017-08-31T06:33:02.188Z,87.80
2017-08-31T06:35:28.471Z,86.80
2017-08-31T06:37:54.561Z,87.80
2017-08-31T06:40:20.585Z,88.10
2017-08-31T06:42:46.606Z,88.10
2017-08-31T06:45:12.910Z,88.10
2017-08-31T06:47:38.939Z,87.50
2017-08-31T06:50:04.958Z,86.90
2017-08-31T06:52:31.007Z,86.70
2017-08-31T06:54:57.078Z,86.90
2017-08-31T06:57:23.336Z,86.90
2017-08-31T06:59:49.363Z,87.50
2017-08-31T07:02:15.406Z,87.50
2017-08-31T07:04:41.698Z,87.20
2017-08-31T07:07:07.715Z,87.20
2017-08-31T07:09:33.742Z,87.00
2017-08-31T07:12:00.079Z,87.20
2017-08-31T07:14:26.107Z,87.70
2017-08-31T07:16:52.205Z,87.90
2017-08-31T07:19:18.229Z,87.60
2017-08-31T07:21:44.251Z,87.80
2017-08-31T07:24:10.288Z,87.60
2017-08-31T07:26:36.346Z,87.40
2017-08-31T07:29:02.414Z,87.40
2017-08-31T07:31:28.651Z,87.20
2017-08-31T07:33:54.665Z,86.00
2017-08-31T07:36:20.695Z,86.50
2017-08-31T07:38:47.121Z,85.20
2017-08-31T07:41:13.134Z,85.10
2017-08-31T07:43:39.162Z,84.40
2017-08-31T07:46:05.214Z,84.30
2017-08-31T07:48:31.270Z,83.40
2017-08-31T07:50:57.327Z,83.10
2017-08-31T07:53:23.406Z,84.00
2017-08-31T07:55:49.434Z,83.60
2017-08-31T07:58:15.482Z,84.00
2017-08-31T08:00:41.539Z,83.60
2017-08-31T08:03:07.562Z,84.10
2017-08-31T08:05:33.570Z,84.30
2017-08-31T08:07:59.634Z,83.70
2017-08-31T08:10:25.668Z,82.90
2017-08-31T08:12:52.127Z,83.10
2017-08-31T08:15:18.130Z,83.20
2017-08-31T08:17:44.146Z,83.20
2017-08-31T08:20:10.189Z,81.60
2017-08-31T08:22:36.228Z,80.80
2017-08-31T08:25:02.247Z,81.20
2017-08-31T08:27:28.454Z,81.40
2017-08-31T08:29:54.480Z,81.00
2017-08-31T08:32:20.510Z,80.90
2017-08-31T08:34:46.587Z,81.10
2017-08-31T08:37:12.598Z,80.10
2017-08-31T08:39:38.617Z,81.00
2017-08-31T08:42:04.639Z,81.30
2017-08-31T08:44:30.671Z,80.70
2017-08-31T08:46:56.718Z,79.90
2017-08-31T08:49:22.764Z,80.30
2017-08-31T08:51:48.798Z,79.60
2017-08-31T08:54:15.202Z,80.00
2017-08-31T08:56:41.277Z,80.10
2017-08-31T08:59:07.298Z,80.80
2017-08-31T09:01:33.362Z,80.60
2017-08-31T09:03:59.395Z,80.20
2017-08-31T09:06:25.417Z,80.70
2017-08-31T09:08:51.470Z,79.30
2017-08-31T09:11:17.574Z,78.40
2017-08-31T09:13:43.667Z,79.30
2017-08-31T09:16:09.718Z,79.20
2017-08-31T09:18:35.742Z,79.20
2017-08-31T09:21:01.758Z,79.30
2017-08-31T09:23:27.822Z,79.30
2017-08-31T09:25:53.858Z,79.50
2017-08-31T09:28:19.900Z,80.70
2017-08-31T09:30:45.992Z,79.60
2017-08-31T09:33:12.026Z,79.60
2017-08-31T09:35:38.076Z,79.70
2017-08-31T09:38:04.169Z,80.10
2017-08-31T09:40:30.194Z,79.40
2017-08-31T09:42:56.222Z,79.10
2017-08-31T09:45:22.269Z,79.20
2017-08-31T09:47:48.266Z,78.80
2017-08-31T09:50:14.314Z,79.70
2017-08-31T09:52:40.359Z,80.10
2017-08-31T09:55:06.398Z,79.60
2017-08-31T09:57:32.421Z,79.80
2017-08-31T09:59:58.483Z,80.50
2017-08-31T10:02:24.506Z,80.20
2017-08-31T10:04:50.542Z,79.40
2017-08-31T10:07:16.590Z,78.70
2017-08-31T10:09:42.607Z,77.10
2017-08-31T10:12:08.641Z,77.20
2017-08-31T10:14:34.694Z,77.20
2017-08-31T10:17:00.722Z,76.30
2017-08-31T10:19:26.728Z,76.70
2017-08-31T10:21:53.105Z,76.10
2017-08-31T10:24:19.130Z,76.80
2017-08-31T10:26:45.172Z,76.30
2017-08-31T10:29:11.228Z,76.50
2017-08-31T10:31:37.254Z,76.60
2017-08-31T10:34:03.296Z,77.20
2017-08-31T10:36:29.387Z,75.70
2017-08-31T10:38:55.410Z,75.40
2017-08-31T10:41:21.456Z,76.20
2017-08-31T10:43:47.510Z,76.70
2017-08-31T10:46:13.566Z,76.80
2017-08-31T10:48:39.618Z,76.20
2017-08-31T10:51:05.636Z,76.20
2017-08-31T10:53:31.650Z,75.70
2017-08-31T10:55:57.706Z,76.20
2017-08-31T10:58:23.730Z,76.70
2017-08-31T11:00:49.774Z,76.30
2017-08-31T11:03:15.831Z,77.30
2017-08-31T11:05:41.850Z,76.60
2017-08-31T11:08:07.907Z,77.20
2017-08-31T11:10:33.977Z,76.40
2017-08-31T11:13:00.025Z,76.50
2017-08-31T11:15:26.069Z,76.60
2017-08-31T11:17:52.126Z,76.20
2017-08-31T11:20:18.150Z,76.10
2017-08-31T11:22:44.211Z,76.70
2017-08-31T11:25:11.786Z,76.40
2017-08-31T11:27:37.928Z,75.40
2017-08-31T11:30:03.994Z,74.20
2017-08-31T11:32:29.950Z,73.70
2017-08-31T11:34:56.456Z,73.70
2017-08-31T11:37:22.495Z,73.90
2017-08-31T11:39:48.440Z,74.20
2017-08-31T11:42:14.488Z,73.80
2017-08-31T11:44:40.483Z,74.00
2017-08-31T11:47:06.534Z,74.20
2017-08-31T11:49:32.543Z,72.10
2017-08-31T11:51:58.542Z,72.30
2017-08-31T11:54:24.583Z,72.90
2017-08-31T11:56:50.615Z,72.20
2017-08-31T11:59:16.815Z,72.40
2017-08-31T12:01:42.946Z,72.00
2017-08-31T12:04:09.007Z,71.40
2017-08-31T12:06:35.314Z,71.30
2017-08-31T12:09:01.334Z,72.10
2017-08-31T12:11:27.396Z,71.00
2017-08-31T12:13:53.772Z,71.90
2017-08-31T12:16:19.810Z,71.30
2017-08-31T12:18:45.839Z,70.80
2017-08-31T12:21:11.913Z,71.50
2017-08-31T12:23:37.945Z,71.10
2017-08-31T12:26:03.954Z,69.60
2017-08-31T12:28:30.197Z,69.70
2017-08-31T12:30:56.223Z,69.10
2017-08-31T12:33:22.240Z,70.20
2017-08-31T12:35:48.465Z,70.10
2017-08-31T12:38:14.498Z,71.10
2017-08-31T12:40:40.530Z,70.10
2017-08-31T12:43:06.617Z,69.30
2017-08-31T12:45:32.656Z,70.20
2017-08-31T12:47:58.707Z,67.90
2017-08-31T12:50:24.910Z,67.80
2017-08-31T12:52:50.937Z,69.80
2017-08-31T12:55:19.275Z,69.00
2017-08-31T12:57:45.352Z,69.70
2017-08-31T13:00:11.410Z,69.30
2017-08-31T13:02:37.534Z,68.80
2017-08-31T13:05:04.621Z,70.80
2017-08-31T13:07:30.678Z,70.70
2017-08-31T13:09:56.989Z,70.10
2017-08-31T13:12:23.255Z,70.40
2017-08-31T13:14:49.777Z,68.40
2017-08-31T13:17:16.211Z,67.70
2017-08-31T13:19:42.825Z,67.30
2017-08-31T13:22:09.688Z,67.40
2017-08-31T13:24:36.040Z,68.20
2017-08-31T13:27:04.640Z,68.00
2017-08-31T13:29:31.100Z,69.00
2017-08-31T13:31:57.592Z,69.20
2017-08-31T13:34:24.336Z,69.10
2017-08-31T13:36:51.101Z,70.40
2017-08-31T13:39:17.418Z,71.10
2017-08-31T13:41:43.917Z,70.40
2017-08-31T13:44:10.149Z,71.40
2017-08-31T13:46:36.569Z,71.50
2017-08-31T13:49:02.748Z,70.80
2017-08-31T13:51:29.220Z,71.30
2017-08-31T13:53:55.516Z,71.80
2017-08-31T13:56:21.797Z,70.60
2017-08-31T13:58:47.914Z,70.00
2017-08-31T14:01:14.106Z,70.80
2017-08-31T14:03:40.122Z,70.70
2017-08-31T14:06:06.186Z,70.00
2017-08-31T14:08:32.238Z,70.30
2017-08-31T14:10:58.310Z,70.60
2017-08-31T14:13:24.353Z,71.00
2017-08-31T14:15:50.389Z,71.20
2017-08-31T14:18:16.419Z,71.00
2017-08-31T14:20:42.748Z,71.40
2017-08-31T14:23:08.805Z,72.40
2017-08-31T14:25:34.821Z,73.30
2017-08-31T14:28:01.141Z,73.90
2017-08-31T14:30:27.223Z,74.80
2017-08-31T14:32:53.282Z,75.70
2017-08-31T14:35:19.582Z,76.50
2017-08-31T14:37:46.103Z,77.80
2017-08-31T14:40:12.148Z,79.20
2017-08-31T14:42:38.223Z,81.40
2017-08-31T14:45:04.266Z,81.60
2017-08-31T14:47:30.311Z,81.90
2017-08-31T14:49:56.535Z,82.50
2017-08-31T14:52:22.567Z,83.40
2017-08-31T14:54:48.605Z,83.50
2017-08-31T14:57:15.010Z,82.80
2017-08-31T14:59:41.066Z,82.90
2017-08-31T15:02:07.128Z,82.80
2017-08-31T15:04:33.186Z,83.00
2017-08-31T15:06:59.220Z,81.90
2017-08-31T15:09:25.256Z,82.10
2017-08-31T15:11:51.658Z,82.30
2017-08-31T15:14:17.712Z,81.80
2017-08-31T15:16:43.736Z,82.00
2017-08-31T15:19:10.122Z,82.30
2017-08-31T15:21:36.147Z,81.50
2017-08-31T15:24:02.215Z,81.00
2017-08-31T15:26:28.242Z,80.20
2017-08-31T15:28:54.290Z,80.50
2017-08-31T15:31:20.340Z,80.30
2017-08-31T15:33:46.378Z,79.90
2017-08-31T15:36:12.430Z,79.80
2017-08-31T15:38:38.909Z,78.70
2017-08-31T15:41:04.951Z,79.90
2017-08-31T15:43:30.981Z,80.20
2017-08-31T15:45:57.276Z,79.80
2017-08-31T15:48:23.302Z,79.90
2017-08-31T15:50:49.318Z,80.00
2017-08-31T15:53:15.564Z,80.30
2017-08-31T15:55:41.608Z,80.00
2017-08-31T15:58:07.647Z,79.60
2017-08-31T16:00:33.690Z,80.50
2017-08-31T16:02:59.764Z,80.80
2017-08-31T16:05:25.774Z,79.60
2017-08-31T16:07:51.802Z,80.50
2017-08-31T16:10:17.822Z,78.30
2017-08-31T16:12:43.846Z,78.80
2017-08-31T16:15:10.217Z,78.90
2017-08-31T16:17:36.250Z,78.70
2017-08-31T16:20:02.289Z,77.40
2017-08-31T16:22:28.319Z,77.70
2017-08-31T16:24:54.342Z,76.80
2017-08-31T16:27:20.790Z,76.70
2017-08-31T16:29:46.814Z,76.50
2017-08-31T16:32:12.842Z,76.00
2017-08-31T16:34:38.925Z,75.30
2017-08-31T16:37:04.968Z,76.30
2017-08-31T16:39:31.273Z,77.20
2017-08-31T16:41:57.730Z,77.50
2017-08-31T16:44:23.758Z,77.60
2017-08-31T16:46:49.813Z,76.50
2017-08-31T16:49:16.079Z,76.00
2017-08-31T16:51:42.119Z,75.90
2017-08-31T16:54:08.160Z,76.00
2017-08-31T16:56:34.248Z,76.80
2017-08-31T16:59:00.374Z,76.30
2017-08-31T17:01:26.395Z,76.00
2017-08-31T17:03:52.446Z,76.50
2017-08-31T17:06:18.472Z,76.00
2017-08-31T17:08:44.525Z,76.70
2017-08-31T17:11:10.891Z,76.80
2017-08-31T17:13:37.891Z,77.50
2017-08-31T17:16:04.019Z,77.30
2017-08-31T17:18:30.142Z,77.00
2017-08-31T17:20:56.184Z,77.70
2017-08-31T17:23:22.205Z,77.60
2017-08-31T17:25:48.242Z,78.00
2017-08-31T17:28:14.262Z,78.00
2017-08-31T17:30:40.324Z,78.10
2017-08-31T17:33:06.533Z,77.50
2017-08-31T17:35:32.574Z,77.20
2017-08-31T17:37:58.607Z,77.40
2017-08-31T17:40:24.881Z,76.90
2017-08-31T17:42:50.961Z,76.70
2017-08-31T17:45:17.011Z,76.60
2017-08-31T17:47:43.162Z,77.50
2017-08-31T17:50:09.212Z,77.50
2017-08-31T17:52:35.279Z,77.50
2017-08-31T17:55:01.351Z,77.00
2017-08-31T17:57:27.386Z,76.50
2017-08-31T17:59:53.431Z,76.60
2017-08-31T18:02:19.491Z,75.90
2017-08-31T18:04:45.509Z,76.10
2017-08-31T18:07:11.571Z,75.90
2017-08-31T18:09:37.859Z,75.90
2017-08-31T18:12:03.988Z,76.00
2017-08-31T18:14:30.110Z,75.70
2017-08-31T18:16:56.439Z,75.70
2017-08-31T18:19:22.880Z,75.80
2017-08-31T18:21:48.926Z,75.50
2017-08-31T18:24:20.238Z,76.00
2017-08-31T18:26:48.411Z,76.00
2017-08-31T18:29:14.488Z,76.70
2017-08-31T18:31:40.776Z,77.10
2017-08-31T18:34:06.973Z,77.40
2017-08-31T18:36:32.998Z,78.10
2017-08-31T18:38:59.882Z,77.80
2017-08-31T18:41:25.898Z,77.30
2017-08-31T18:43:51.942Z,77.00
2017-08-31T18:46:17.966Z,76.40
2017-08-31T18:48:44.022Z,76.70
2017-08-31T18:51:10.481Z,77.30
2017-08-31T18:53:36.515Z,77.00
2017-08-31T18:56:02.581Z,76.30
2017-08-31T18:58:28.641Z,76.90
2017-08-31T19:00:54.751Z,77.60
2017-08-31T19:03:20.790Z,77.60
2017-08-31T19:05:46.826Z,77.70
2017-08-31T19:08:12.871Z,76.90
2017-08-31T19:10:38.896Z,76.40
2017-08-31T19:13:04.959Z,76.10
2017-08-31T19:15:30.996Z,77.50
2017-08-31T19:17:57.050Z,76.40
2017-08-31T19:20:23.108Z,76.00
2017-08-31T19:22:49.149Z,76.00
2017-08-31T19:25:16.783Z,76.00
2017-08-31T19:27:42.828Z,76.20
2017-08-31T19:30:09.144Z,76.10
2017-08-31T19:32:35.530Z,76.00
2017-08-31T19:35:01.743Z,76.30
2017-08-31T19:37:28.045Z,76.00
2017-08-31T19:39:54.193Z,75.90
2017-08-31T19:42:20.343Z,75.90
2017-08-31T19:44:46.959Z,76.80
2017-08-31T19:47:13.194Z,76.40
2017-08-31T19:49:39.482Z,75.60
2017-08-31T19:52:05.732Z,76.20
2017-08-31T19:54:31.950Z,76.80
2017-08-31T19:56:59.930Z,77.90
2017-08-31T19:59:29.471Z,77.90
2017-08-31T20:01:55.699Z,77.80
2017-08-31T20:06:55.234Z,78.20
2017-08-31T20:09:21.415Z,78.30
2017-08-31T20:11:47.671Z,78.60
2017-08-31T20:14:14.107Z,78.80
2017-08-31T20:16:40.268Z,78.70
2017-08-31T20:19:06.509Z,79.10
2017-08-31T20:21:32.588Z,79.10
2017-08-31T20:23:59.114Z,79.30
2017-08-31T20:26:25.359Z,79.10
2017-08-31T20:28:51.578Z,78.80
2017-08-31T20:31:17.773Z,79.30
2017-08-31T20:33:43.931Z,79.90
2017-08-31T20:36:10.224Z,79.10
2017-08-31T20:38:36.438Z,79.10
2017-08-31T20:41:02.691Z,79.10
2017-08-31T20:43:28.907Z,79.30
2017-08-31T20:45:55.082Z,78.80
2017-08-31T20:48:21.296Z,79.20
2017-08-31T20:50:47.531Z,78.80
2017-08-31T20:53:13.680Z,78.50
2017-08-31T20:55:39.979Z,78.70
2017-08-31T20:58:06.335Z,78.90
2017-08-31T21:00:32.497Z,79.00
2017-08-31T21:02:58.718Z,79.20
2017-08-31T21:05:24.980Z,80.00
2017-08-31T21:07:51.113Z,79.10
2017-08-31T21:10:17.339Z,79.40
2017-08-31T21:12:44.549Z,79.40
2017-08-31T21:15:10.742Z,79.40
2017-08-31T21:17:36.938Z,79.30
2017-08-31T21:20:03.358Z,78.80
2017-08-31T21:22:29.550Z,78.80
2017-08-31T21:24:55.724Z,79.30
2017-08-31T21:27:22.221Z,79.30
2017-08-31T21:29:48.426Z,80.50
2017-08-31T21:32:14.641Z,79.40
2017-08-31T21:34:41.056Z,79.40
2017-08-31T21:37:07.127Z,79.40
2017-08-31T21:39:33.199Z,79.60
2017-08-31T21:41:59.259Z,79.70
2017-08-31T21:44:25.328Z,79.60
2017-08-31T21:46:51.554Z,79.70
2017-08-31T21:49:17.588Z,80.10
2017-08-31T21:51:43.637Z,80.20
2017-08-31T21:54:09.906Z,80.10
2017-08-31T21:56:35.922Z,80.00
2017-08-31T21:59:01.962Z,79.60
2017-08-31T22:01:28.039Z,78.90
2017-08-31T22:03:54.058Z,79.30
2017-08-31T22:06:20.110Z,79.10
2017-08-31T22:08:46.460Z,79.10
2017-08-31T22:11:12.478Z,78.60
2017-08-31T22:13:38.502Z,78.70
2017-08-31T22:16:04.590Z,78.90
2017-08-31T22:18:30.631Z,78.90
2017-08-31T22:20:56.682Z,79.20
2017-08-31T22:23:22.690Z,79.70
2017-08-31T22:25:48.718Z,79.80
2017-08-31T22:28:15.378Z,79.70
2017-08-31T22:30:41.403Z,79.90
2017-08-31T22:33:07.566Z,79.70
2017-08-31T22:35:33.631Z,79.80
2017-08-31T22:37:59.654Z,79.70
2017-08-31T22:40:25.716Z,80.40
2017-08-31T22:42:51.817Z,79.80
2017-08-31T22:45:17.843Z,79.90
2017-08-31T22:47:43.866Z,79.60
2017-08-31T22:50:09.934Z,79.40
2017-08-31T22:52:35.985Z,79.90
2017-08-31T22:55:14.338Z,80.00
2017-08-31T22:57:52.873Z,80.80
2017-08-31T23:00:19.514Z,81.10
2017-08-31T23:02:45.606Z,79.30
2017-08-31T23:05:11.758Z,79.60
2017-08-31T23:07:37.982Z,80.40
2017-08-31T23:10:04.260Z,80.10
2017-08-31T23:12:30.390Z,78.90
2017-08-31T23:14:57.261Z,78.70
2017-08-31T23:20:00.131Z,79.40
2017-08-31T23:22:26.319Z,79.30
2017-08-31T23:24:52.499Z,77.90
2017-08-31T23:27:18.683Z,77.80
2017-08-31T23:29:44.912Z,78.20
2017-08-31T23:32:10.973Z,77.60
2017-08-31T23:34:37.103Z,77.60
2017-08-31T23:37:03.125Z,78.20
2017-08-31T23:39:29.146Z,77.70
2017-08-31T23:41:55.196Z,77.40
2017-08-31T23:44:21.405Z,76.30
2017-08-31T23:46:47.426Z,76.60
2017-08-31T23:49:13.478Z,76.80
2017-08-31T23:51:39.490Z,76.90
2017-08-31T23:54:05.574Z,77.30
2017-08-31T23:56:31.622Z,77.60
2017-08-31T23:58:57.650Z,76.90
